sensor_id;sensor_type;location;lat;lon;timestamp;temperature;humidity
34135;DHT22;20410;55.578;12.968;2023-10-13T00:02:00;7.70;1.00
34135;DHT22;20410;55.578;12.968;2023-10-13T00:04:29;7.70;1.00
34135;DHT22;20410;55.578;12.968;2023-10-13T00:06:55;7.70;1.00
34135;DHT22;20410;55.578;12.968;2023-10-13T00:09:26;7.70;1.00
34135;DHT22;20410;55.578;12.968;2023-10-13T00:11:58;7.70;1.00
34135;DHT22;20410;55.578;12.968;2023-10-13T00:14:24;7.60;1.00
34135;DHT22;20410;55.578;12.968;2023-10-13T00:17:04;7.60;1.00
34135;DHT22;20410;55.578;12.968;2023-10-13T00:19:31;7.60;1.00
34135;DHT22;20410;55.578;12.968;2023-10-13T00:22:04;7.70;1.00
34135;DHT22;20410;55.578;12.968;2023-10-13T00:24:35;7.60;1.00
34135;DHT22;20410;55.578;12.968;2023-10-13T00:27:09;7.60;1.00
34135;DHT22;20410;55.578;12.968;2023-10-13T00:29:39;7.60;1.00
34135;DHT22;20410;55.578;12.968;2023-10-13T00:32:06;7.50;1.00
34135;DHT22;20410;55.578;12.968;2023-10-13T00:34:37;7.60;1.00
34135;DHT22;20410;55.578;12.968;2023-10-13T00:37:03;7.60;1.00
34135;DHT22;20410;55.578;12.968;2023-10-13T00:39:43;7.50;1.00
34135;DHT22;20410;55.578;12.968;2023-10-13T00:42:15;7.50;1.00
34135;DHT22;20410;55.578;12.968;2023-10-13T00:44:45;7.40;1.00
34135;DHT22;20410;55.578;12.968;2023-10-13T00:47:18;7.30;1.00
34135;DHT22;20410;55.578;12.968;2023-10-13T00:50:06;7.20;1.00
34135;DHT22;20410;55.578;12.968;2023-10-13T00:52:36;7.20;1.00
34135;DHT22;20410;55.578;12.968;2023-10-13T00:55:04;7.20;1.00
34135;DHT22;20410;55.578;12.968;2023-10-13T00:57:30;7.30;1.00
34135;DHT22;20410;55.578;12.968;2023-10-13T00:59:57;7.30;1.00
34135;DHT22;20410;55.578;12.968;2023-10-13T01:02:23;7.30;1.00
34135;DHT22;20410;55.578;12.968;2023-10-13T01:05:02;7.40;1.00
34135;DHT22;20410;55.578;12.968;2023-10-13T01:07:29;7.40;1.00
34135;DHT22;20410;55.578;12.968;2023-10-13T01:09:54;7.50;1.00
34135;DHT22;20410;55.578;12.968;2023-10-13T01:12:21;7.50;1.00
34135;DHT22;20410;55.578;12.968;2023-10-13T01:14:50;7.60;1.00
34135;DHT22;20410;55.578;12.968;2023-10-13T01:17:16;7.60;1.00
34135;DHT22;20410;55.578;12.968;2023-10-13T01:19:45;7.60;1.00
34135;DHT22;20410;55.578;12.968;2023-10-13T01:22:11;7.70;1.00
34135;DHT22;20410;55.578;12.968;2023-10-13T01:24:37;7.70;1.00
34135;DHT22;20410;55.578;12.968;2023-10-13T01:27:07;7.70;1.00
34135;DHT22;20410;55.578;12.968;2023-10-13T01:29:47;7.80;1.00
34135;DHT22;20410;55.578;12.968;2023-10-13T01:32:18;7.80;1.00
34135;DHT22;20410;55.578;12.968;2023-10-13T01:34:44;7.90;1.00
34135;DHT22;20410;55.578;12.968;2023-10-13T01:37:12;7.90;1.00
34135;DHT22;20410;55.578;12.968;2023-10-13T01:39:38;7.90;1.00
34135;DHT22;20410;55.578;12.968;2023-10-13T01:42:04;8.00;1.00
34135;DHT22;20410;55.578;12.968;2023-10-13T01:44:31;8.00;1.00
34135;DHT22;20410;55.578;12.968;2023-10-13T01:46:58;7.90;1.00
34135;DHT22;20410;55.578;12.968;2023-10-13T01:49:25;8.00;1.00
34135;DHT22;20410;55.578;12.968;2023-10-13T01:51:51;8.00;1.00
34135;DHT22;20410;55.578;12.968;2023-10-13T01:54:17;8.00;1.00
34135;DHT22;20410;55.578;12.968;2023-10-13T01:56:54;8.10;1.00
34135;DHT22;20410;55.578;12.968;2023-10-13T01:59:20;8.10;1.00
34135;DHT22;20410;55.578;12.968;2023-10-13T02:01:45;8.10;1.00
34135;DHT22;20410;55.578;12.968;2023-10-13T02:04:11;8.00;1.00
34135;DHT22;20410;55.578;12.968;2023-10-13T02:06:40;7.80;1.00
34135;DHT22;20410;55.578;12.968;2023-10-13T02:09:07;7.80;1.00
34135;DHT22;20410;55.578;12.968;2023-10-13T02:11:56;7.80;1.00
34135;DHT22;20410;55.578;12.968;2023-10-13T02:14:22;7.80;1.00
34135;DHT22;20410;55.578;12.968;2023-10-13T02:16:52;7.80;1.00
34135;DHT22;20410;55.578;12.968;2023-10-13T02:19:22;7.90;1.00
34135;DHT22;20410;55.578;12.968;2023-10-13T02:21:52;7.90;1.00
34135;DHT22;20410;55.578;12.968;2023-10-13T02:24:24;7.90;1.00
34135;DHT22;20410;55.578;12.968;2023-10-13T02:26:56;7.90;1.00
34135;DHT22;20410;55.578;12.968;2023-10-13T02:29:28;7.80;1.00
34135;DHT22;20410;55.578;12.968;2023-10-13T02:31:54;7.70;1.00
34135;DHT22;20410;55.578;12.968;2023-10-13T02:34:21;7.60;1.00
34135;DHT22;20410;55.578;12.968;2023-10-13T02:36:49;7.60;1.00
34135;DHT22;20410;55.578;12.968;2023-10-13T02:39:17;7.50;1.00
34135;DHT22;20410;55.578;12.968;2023-10-13T02:41:50;7.60;1.00
34135;DHT22;20410;55.578;12.968;2023-10-13T02:44:21;7.60;1.00
34135;DHT22;20410;55.578;12.968;2023-10-13T02:46:57;7.60;1.00
34135;DHT22;20410;55.578;12.968;2023-10-13T02:49:25;7.60;1.00
34135;DHT22;20410;55.578;12.968;2023-10-13T02:51:52;7.60;1.00
34135;DHT22;20410;55.578;12.968;2023-10-13T02:54:19;7.60;1.00
34135;DHT22;20410;55.578;12.968;2023-10-13T02:56:45;7.60;1.00
34135;DHT22;20410;55.578;12.968;2023-10-13T02:59:25;7.50;1.00
34135;DHT22;20410;55.578;12.968;2023-10-13T03:02:01;7.40;1.00
34135;DHT22;20410;55.578;12.968;2023-10-13T03:04:32;7.40;1.00
34135;DHT22;20410;55.578;12.968;2023-10-13T03:06:58;7.30;1.00
34135;DHT22;20410;55.578;12.968;2023-10-13T03:09:25;7.30;1.00
34135;DHT22;20410;55.578;12.968;2023-10-13T03:11:51;7.30;1.00
34135;DHT22;20410;55.578;12.968;2023-10-13T03:14:20;7.30;1.00
34135;DHT22;20410;55.578;12.968;2023-10-13T03:16:54;7.30;1.00
34135;DHT22;20410;55.578;12.968;2023-10-13T03:19:20;7.30;1.00
34135;DHT22;20410;55.578;12.968;2023-10-13T03:21:46;7.30;1.00
34135;DHT22;20410;55.578;12.968;2023-10-13T03:24:22;7.30;1.00
34135;DHT22;20410;55.578;12.968;2023-10-13T03:26:59;7.30;1.00
34135;DHT22;20410;55.578;12.968;2023-10-13T03:29:38;7.40;1.00
34135;DHT22;20410;55.578;12.968;2023-10-13T03:32:10;7.40;1.00
34135;DHT22;20410;55.578;12.968;2023-10-13T03:34:43;7.50;1.00
34135;DHT22;20410;55.578;12.968;2023-10-13T03:37:19;7.60;1.00
34135;DHT22;20410;55.578;12.968;2023-10-13T03:40:13;7.80;1.00
34135;DHT22;20410;55.578;12.968;2023-10-13T03:42:52;7.90;1.00
34135;DHT22;20410;55.578;12.968;2023-10-13T03:45:38;8.10;1.00
34135;DHT22;20410;55.578;12.968;2023-10-13T03:48:06;8.20;1.00
34135;DHT22;20410;55.578;12.968;2023-10-13T03:50:36;8.30;1.00
34135;DHT22;20410;55.578;12.968;2023-10-13T03:53:03;8.40;1.00
34135;DHT22;20410;55.578;12.968;2023-10-13T03:55:31;8.50;1.00
34135;DHT22;20410;55.578;12.968;2023-10-13T03:58:00;8.70;1.00
34135;DHT22;20410;55.578;12.968;2023-10-13T04:00:26;8.80;1.00
34135;DHT22;20410;55.578;12.968;2023-10-13T04:02:54;8.90;1.00
34135;DHT22;20410;55.578;12.968;2023-10-13T04:05:33;8.90;1.00
34135;DHT22;20410;55.578;12.968;2023-10-13T04:08:18;9.00;1.00
34135;DHT22;20410;55.578;12.968;2023-10-13T04:10:54;9.10;1.00
34135;DHT22;20410;55.578;12.968;2023-10-13T04:13:20;9.20;1.00
34135;DHT22;20410;55.578;12.968;2023-10-13T04:16:06;9.20;1.00
34135;DHT22;20410;55.578;12.968;2023-10-13T04:18:47;9.30;1.00
34135;DHT22;20410;55.578;12.968;2023-10-13T04:21:25;9.30;1.00
34135;DHT22;20410;55.578;12.968;2023-10-13T04:24:21;9.30;1.00
34135;DHT22;20410;55.578;12.968;2023-10-13T04:27:06;9.40;1.00
34135;DHT22;20410;55.578;12.968;2023-10-13T04:29:40;9.40;1.00
34135;DHT22;20410;55.578;12.968;2023-10-13T04:32:36;9.50;1.00
34135;DHT22;20410;55.578;12.968;2023-10-13T04:35:11;9.50;1.00
34135;DHT22;20410;55.578;12.968;2023-10-13T04:37:40;9.50;1.00
34135;DHT22;20410;55.578;12.968;2023-10-13T04:40:19;9.50;1.00
34135;DHT22;20410;55.578;12.968;2023-10-13T04:42:52;9.60;1.00
34135;DHT22;20410;55.578;12.968;2023-10-13T04:45:31;9.60;1.00
34135;DHT22;20410;55.578;12.968;2023-10-13T04:48:01;9.70;1.00
34135;DHT22;20410;55.578;12.968;2023-10-13T04:51:11;9.70;1.00
34135;DHT22;20410;55.578;12.968;2023-10-13T04:54:10;9.90;1.00
34135;DHT22;20410;55.578;12.968;2023-10-13T04:56:51;10.00;1.00
34135;DHT22;20410;55.578;12.968;2023-10-13T04:59:39;10.10;1.00
34135;DHT22;20410;55.578;12.968;2023-10-13T05:05:43;10.20;1.00
34135;DHT22;20410;55.578;12.968;2023-10-13T05:12:29;10.40;1.00
34135;DHT22;20410;55.578;12.968;2023-10-13T05:15:14;10.40;1.00
34135;DHT22;20410;55.578;12.968;2023-10-13T05:17:57;10.50;1.00
34135;DHT22;20410;55.578;12.968;2023-10-13T05:20:45;10.50;1.00
34135;DHT22;20410;55.578;12.968;2023-10-13T05:23:29;10.50;1.00
34135;DHT22;20410;55.578;12.968;2023-10-13T05:26:22;10.50;1.00
34135;DHT22;20410;55.578;12.968;2023-10-13T05:29:06;10.50;1.00
34135;DHT22;20410;55.578;12.968;2023-10-13T05:31:51;10.50;1.00
34135;DHT22;20410;55.578;12.968;2023-10-13T05:34:35;10.50;1.00
34135;DHT22;20410;55.578;12.968;2023-10-13T05:37:18;10.60;1.00
34135;DHT22;20410;55.578;12.968;2023-10-13T05:40:03;10.60;1.00
34135;DHT22;20410;55.578;12.968;2023-10-13T05:42:47;10.60;1.00
34135;DHT22;20410;55.578;12.968;2023-10-13T05:45:31;10.70;1.00
34135;DHT22;20410;55.578;12.968;2023-10-13T05:48:23;10.70;1.00
34135;DHT22;20410;55.578;12.968;2023-10-13T05:51:07;10.80;1.00
34135;DHT22;20410;55.578;12.968;2023-10-13T05:53:51;10.80;1.00
34135;DHT22;20410;55.578;12.968;2023-10-13T05:56:55;10.90;1.00
34135;DHT22;20410;55.578;12.968;2023-10-13T05:59:39;10.90;1.00
34135;DHT22;20410;55.578;12.968;2023-10-13T06:02:24;11.00;1.00
34135;DHT22;20410;55.578;12.968;2023-10-13T06:05:09;11.00;1.00
34135;DHT22;20410;55.578;12.968;2023-10-13T06:07:55;11.10;1.00
34135;DHT22;20410;55.578;12.968;2023-10-13T06:10:40;11.10;1.00
34135;DHT22;20410;55.578;12.968;2023-10-13T06:13:24;11.20;1.00
34135;DHT22;20410;55.578;12.968;2023-10-13T06:16:13;11.20;1.00
34135;DHT22;20410;55.578;12.968;2023-10-13T06:18:58;11.30;1.00
34135;DHT22;20410;55.578;12.968;2023-10-13T06:21:43;11.40;1.00
34135;DHT22;20410;55.578;12.968;2023-10-13T06:24:28;11.40;1.00
34135;DHT22;20410;55.578;12.968;2023-10-13T06:27:14;11.50;1.00
34135;DHT22;20410;55.578;12.968;2023-10-13T06:29:58;11.60;1.00
34135;DHT22;20410;55.578;12.968;2023-10-13T06:32:24;11.60;1.00
34135;DHT22;20410;55.578;12.968;2023-10-13T06:34:53;11.60;1.00
34135;DHT22;20410;55.578;12.968;2023-10-13T06:37:23;11.70;1.00
34135;DHT22;20410;55.578;12.968;2023-10-13T06:39:53;11.80;1.00
34135;DHT22;20410;55.578;12.968;2023-10-13T06:42:25;11.80;1.00
34135;DHT22;20410;55.578;12.968;2023-10-13T06:44:57;11.90;1.00
34135;DHT22;20410;55.578;12.968;2023-10-13T06:47:23;12.00;1.00
34135;DHT22;20410;55.578;12.968;2023-10-13T06:49:50;12.00;1.00
34135;DHT22;20410;55.578;12.968;2023-10-13T06:52:20;12.00;1.00
34135;DHT22;20410;55.578;12.968;2023-10-13T06:54:50;12.00;1.00
34135;DHT22;20410;55.578;12.968;2023-10-13T06:57:16;12.10;7.40
34135;DHT22;20410;55.578;12.968;2023-10-13T06:59:46;12.10;10.40
34135;DHT22;20410;55.578;12.968;2023-10-13T07:02:12;12.10;13.10
34135;DHT22;20410;55.578;12.968;2023-10-13T07:04:47;12.20;24.10
34135;DHT22;20410;55.578;12.968;2023-10-13T07:07:13;12.20;24.50
34135;DHT22;20410;55.578;12.968;2023-10-13T07:09:42;12.30;38.00
34135;DHT22;20410;55.578;12.968;2023-10-13T07:12:23;12.40;47.70
34135;DHT22;20410;55.578;12.968;2023-10-13T07:14:52;12.40;55.40
34135;DHT22;20410;55.578;12.968;2023-10-13T07:17:19;12.40;59.90
34135;DHT22;20410;55.578;12.968;2023-10-13T07:19:58;12.40;77.50
34135;DHT22;20410;55.578;12.968;2023-10-13T07:22:40;12.40;89.10
34135;DHT22;20410;55.578;12.968;2023-10-13T07:25:06;12.40;95.70
34135;DHT22;20410;55.578;12.968;2023-10-13T07:27:32;12.40;98.60
34135;DHT22;20410;55.578;12.968;2023-10-13T07:30:00;12.50;99.90
34135;DHT22;20410;55.578;12.968;2023-10-13T07:32:53;12.50;99.90
34135;DHT22;20410;55.578;12.968;2023-10-13T07:35:20;12.50;99.90
34135;DHT22;20410;55.578;12.968;2023-10-13T07:37:48;12.50;99.90
34135;DHT22;20410;55.578;12.968;2023-10-13T07:40:21;12.50;99.90
34135;DHT22;20410;55.578;12.968;2023-10-13T07:43:07;12.50;99.90
34135;DHT22;20410;55.578;12.968;2023-10-13T07:45:37;12.60;99.90
34135;DHT22;20410;55.578;12.968;2023-10-13T07:48:04;12.60;99.90
34135;DHT22;20410;55.578;12.968;2023-10-13T07:50:40;12.60;99.90
34135;DHT22;20410;55.578;12.968;2023-10-13T07:53:06;12.60;99.90
34135;DHT22;20410;55.578;12.968;2023-10-13T07:55:48;12.60;99.90
34135;DHT22;20410;55.578;12.968;2023-10-13T07:58:24;12.60;99.90
34135;DHT22;20410;55.578;12.968;2023-10-13T08:00:53;12.70;99.90
34135;DHT22;20410;55.578;12.968;2023-10-13T08:03:33;12.70;99.90
34135;DHT22;20410;55.578;12.968;2023-10-13T08:06:01;12.70;99.90
34135;DHT22;20410;55.578;12.968;2023-10-13T08:08:31;12.70;99.90
34135;DHT22;20410;55.578;12.968;2023-10-13T08:13:43;12.80;99.90
34135;DHT22;20410;55.578;12.968;2023-10-13T08:16:15;12.80;99.90
34135;DHT22;20410;55.578;12.968;2023-10-13T08:18:51;12.90;99.90
34135;DHT22;20410;55.578;12.968;2023-10-13T08:21:18;12.90;99.90
34135;DHT22;20410;55.578;12.968;2023-10-13T08:23:51;12.90;99.90
34135;DHT22;20410;55.578;12.968;2023-10-13T08:26:20;13.00;99.90
34135;DHT22;20410;55.578;12.968;2023-10-13T08:28:56;13.10;99.90
34135;DHT22;20410;55.578;12.968;2023-10-13T08:31:22;13.10;99.90
34135;DHT22;20410;55.578;12.968;2023-10-13T08:33:50;13.20;99.90
34135;DHT22;20410;55.578;12.968;2023-10-13T08:36:23;13.20;99.90
34135;DHT22;20410;55.578;12.968;2023-10-13T08:38:56;13.20;99.90
34135;DHT22;20410;55.578;12.968;2023-10-13T08:41:23;13.30;99.90
34135;DHT22;20410;55.578;12.968;2023-10-13T08:43:50;13.40;99.90
34135;DHT22;20410;55.578;12.968;2023-10-13T08:46:17;13.40;99.90
34135;DHT22;20410;55.578;12.968;2023-10-13T08:49:00;13.40;99.90
34135;DHT22;20410;55.578;12.968;2023-10-13T08:51:39;13.50;99.90
34135;DHT22;20410;55.578;12.968;2023-10-13T08:54:16;13.50;99.90
34135;DHT22;20410;55.578;12.968;2023-10-13T08:56:48;13.60;99.90
34135;DHT22;20410;55.578;12.968;2023-10-13T08:59:28;13.60;99.90
34135;DHT22;20410;55.578;12.968;2023-10-13T09:02:22;13.60;99.90
34135;DHT22;20410;55.578;12.968;2023-10-13T09:05:09;13.70;99.90
34135;DHT22;20410;55.578;12.968;2023-10-13T09:07:54;13.70;99.90
34135;DHT22;20410;55.578;12.968;2023-10-13T09:10:24;13.80;99.90
34135;DHT22;20410;55.578;12.968;2023-10-13T09:12:58;13.70;99.90
34135;DHT22;20410;55.578;12.968;2023-10-13T09:15:30;13.80;99.90
34135;DHT22;20410;55.578;12.968;2023-10-13T09:18:28;13.80;99.90
34135;DHT22;20410;55.578;12.968;2023-10-13T09:21:15;13.80;99.90
34135;DHT22;20410;55.578;12.968;2023-10-13T09:23:59;13.90;99.90
34135;DHT22;20410;55.578;12.968;2023-10-13T09:26:43;13.90;99.90
34135;DHT22;20410;55.578;12.968;2023-10-13T09:29:19;13.90;99.90
34135;DHT22;20410;55.578;12.968;2023-10-13T09:31:59;14.00;99.90
34135;DHT22;20410;55.578;12.968;2023-10-13T09:34:26;14.00;99.90
34135;DHT22;20410;55.578;12.968;2023-10-13T09:36:57;14.00;99.90
34135;DHT22;20410;55.578;12.968;2023-10-13T09:39:27;14.00;99.90
34135;DHT22;20410;55.578;12.968;2023-10-13T09:41:59;14.10;99.90
34135;DHT22;20410;55.578;12.968;2023-10-13T09:44:26;14.10;99.90
34135;DHT22;20410;55.578;12.968;2023-10-13T09:47:00;14.20;99.90
34135;DHT22;20410;55.578;12.968;2023-10-13T09:49:36;14.20;99.90
34135;DHT22;20410;55.578;12.968;2023-10-13T09:52:15;14.30;99.90
34135;DHT22;20410;55.578;12.968;2023-10-13T09:54:59;14.40;99.90
34135;DHT22;20410;55.578;12.968;2023-10-13T09:57:32;14.40;99.90
34135;DHT22;20410;55.578;12.968;2023-10-13T10:00:11;14.40;99.90
34135;DHT22;20410;55.578;12.968;2023-10-13T10:02:58;14.50;99.90
34135;DHT22;20410;55.578;12.968;2023-10-13T10:05:27;14.50;99.90
34135;DHT22;20410;55.578;12.968;2023-10-13T10:07:59;14.60;99.90
34135;DHT22;20410;55.578;12.968;2023-10-13T10:10:43;14.60;99.90
34135;DHT22;20410;55.578;12.968;2023-10-13T10:13:19;14.60;99.90
34135;DHT22;20410;55.578;12.968;2023-10-13T10:15:49;14.70;99.90
34135;DHT22;20410;55.578;12.968;2023-10-13T10:18:20;14.70;99.90
34135;DHT22;20410;55.578;12.968;2023-10-13T10:21:03;14.80;99.90
34135;DHT22;20410;55.578;12.968;2023-10-13T10:23:33;14.80;99.90
34135;DHT22;20410;55.578;12.968;2023-10-13T10:28:40;14.90;99.90
34135;DHT22;20410;55.578;12.968;2023-10-13T10:31:10;14.90;99.90
34135;DHT22;20410;55.578;12.968;2023-10-13T10:33:41;14.90;99.90
34135;DHT22;20410;55.578;12.968;2023-10-13T10:36:07;14.90;99.90
34135;DHT22;20410;55.578;12.968;2023-10-13T10:38:52;14.90;99.90
34135;DHT22;20410;55.578;12.968;2023-10-13T10:41:26;14.90;99.90
34135;DHT22;20410;55.578;12.968;2023-10-13T10:43:55;15.00;99.90
34135;DHT22;20410;55.578;12.968;2023-10-13T10:46:28;14.90;99.90
34135;DHT22;20410;55.578;12.968;2023-10-13T10:48:57;15.00;99.90
34135;DHT22;20410;55.578;12.968;2023-10-13T10:51:26;15.00;99.90
34135;DHT22;20410;55.578;12.968;2023-10-13T10:53:57;15.00;99.90
34135;DHT22;20410;55.578;12.968;2023-10-13T10:56:24;15.00;99.90
34135;DHT22;20410;55.578;12.968;2023-10-13T10:58:55;15.10;99.90
34135;DHT22;20410;55.578;12.968;2023-10-13T11:01:24;15.10;99.90
34135;DHT22;20410;55.578;12.968;2023-10-13T11:04:02;15.10;99.90
34135;DHT22;20410;55.578;12.968;2023-10-13T11:06:55;15.10;99.90
34135;DHT22;20410;55.578;12.968;2023-10-13T11:09:27;15.10;99.90
34135;DHT22;20410;55.578;12.968;2023-10-13T11:12:17;15.10;99.90
34135;DHT22;20410;55.578;12.968;2023-10-13T11:15:03;15.20;99.90
34135;DHT22;20410;55.578;12.968;2023-10-13T11:17:37;15.20;99.90
34135;DHT22;20410;55.578;12.968;2023-10-13T11:20:18;15.20;99.90
34135;DHT22;20410;55.578;12.968;2023-10-13T11:22:51;15.20;99.90
34135;DHT22;20410;55.578;12.968;2023-10-13T11:25:30;15.30;99.90
34135;DHT22;20410;55.578;12.968;2023-10-13T11:28:16;15.30;99.90
34135;DHT22;20410;55.578;12.968;2023-10-13T11:30:55;15.30;99.90
34135;DHT22;20410;55.578;12.968;2023-10-13T11:33:25;15.30;99.90
34135;DHT22;20410;55.578;12.968;2023-10-13T11:35:55;15.30;99.90
34135;DHT22;20410;55.578;12.968;2023-10-13T11:38:31;15.40;99.90
34135;DHT22;20410;55.578;12.968;2023-10-13T11:41:16;15.30;99.90
34135;DHT22;20410;55.578;12.968;2023-10-13T11:43:43;15.40;99.90
34135;DHT22;20410;55.578;12.968;2023-10-13T11:46:13;15.40;99.90
34135;DHT22;20410;55.578;12.968;2023-10-13T11:48:42;15.40;99.90
34135;DHT22;20410;55.578;12.968;2023-10-13T11:51:12;15.50;99.90
34135;DHT22;20410;55.578;12.968;2023-10-13T11:53:51;15.50;99.90
34135;DHT22;20410;55.578;12.968;2023-10-13T11:56:18;15.50;99.90
34135;DHT22;20410;55.578;12.968;2023-10-13T11:58:46;15.50;99.90
34135;DHT22;20410;55.578;12.968;2023-10-13T12:01:12;15.50;99.90
34135;DHT22;20410;55.578;12.968;2023-10-13T12:03:41;15.60;99.90
34135;DHT22;20410;55.578;12.968;2023-10-13T12:06:26;15.50;99.90
34135;DHT22;20410;55.578;12.968;2023-10-13T12:09:10;15.60;99.90
34135;DHT22;20410;55.578;12.968;2023-10-13T12:11:46;15.60;99.90
34135;DHT22;20410;55.578;12.968;2023-10-13T12:14:13;15.60;99.90
34135;DHT22;20410;55.578;12.968;2023-10-13T12:16:47;15.60;99.90
34135;DHT22;20410;55.578;12.968;2023-10-13T12:19:20;15.60;99.90
34135;DHT22;20410;55.578;12.968;2023-10-13T12:21:58;15.60;99.90
34135;DHT22;20410;55.578;12.968;2023-10-13T12:24:33;15.60;99.90
34135;DHT22;20410;55.578;12.968;2023-10-13T12:27:08;15.60;99.90
34135;DHT22;20410;55.578;12.968;2023-10-13T12:29:49;15.70;99.90
34135;DHT22;20410;55.578;12.968;2023-10-13T12:32:17;15.70;99.90
34135;DHT22;20410;55.578;12.968;2023-10-13T12:34:48;15.70;99.90
34135;DHT22;20410;55.578;12.968;2023-10-13T12:37:32;15.70;99.90
34135;DHT22;20410;55.578;12.968;2023-10-13T12:42:51;15.80;99.90
34135;DHT22;20410;55.578;12.968;2023-10-13T12:45:39;15.80;99.90
34135;DHT22;20410;55.578;12.968;2023-10-13T12:48:24;15.80;99.90
34135;DHT22;20410;55.578;12.968;2023-10-13T12:51:08;15.70;99.90
34135;DHT22;20410;55.578;12.968;2023-10-13T12:53:51;15.80;99.90
34135;DHT22;20410;55.578;12.968;2023-10-13T12:56:18;15.90;99.90
34135;DHT22;20410;55.578;12.968;2023-10-13T12:58:54;15.90;99.90
34135;DHT22;20410;55.578;12.968;2023-10-13T13:03:46;16.00;99.90
34135;DHT22;20410;55.578;12.968;2023-10-13T13:06:38;16.00;99.90
34135;DHT22;20410;55.578;12.968;2023-10-13T13:09:05;16.00;99.90
34135;DHT22;20410;55.578;12.968;2023-10-13T13:11:35;16.00;99.90
34135;DHT22;20410;55.578;12.968;2023-10-13T13:14:08;16.00;99.90
34135;DHT22;20410;55.578;12.968;2023-10-13T13:16:34;16.10;99.90
34135;DHT22;20410;55.578;12.968;2023-10-13T13:19:00;16.10;99.90
34135;DHT22;20410;55.578;12.968;2023-10-13T13:21:36;16.10;99.90
34135;DHT22;20410;55.578;12.968;2023-10-13T13:24:01;16.20;99.90
34135;DHT22;20410;55.578;12.968;2023-10-13T13:26:29;16.20;99.90
34135;DHT22;20410;55.578;12.968;2023-10-13T13:28:56;16.20;99.90
34135;DHT22;20410;55.578;12.968;2023-10-13T13:31:23;16.20;99.90
34135;DHT22;20410;55.578;12.968;2023-10-13T13:33:52;16.20;99.90
34135;DHT22;20410;55.578;12.968;2023-10-13T13:36:18;16.20;99.90
34135;DHT22;20410;55.578;12.968;2023-10-13T13:38:45;16.20;99.90
34135;DHT22;20410;55.578;12.968;2023-10-13T13:41:12;16.20;99.90
34135;DHT22;20410;55.578;12.968;2023-10-13T13:43:46;16.10;99.90
34135;DHT22;20410;55.578;12.968;2023-10-13T13:46:22;16.10;99.90
34135;DHT22;20410;55.578;12.968;2023-10-13T13:48:51;16.00;99.90
34135;DHT22;20410;55.578;12.968;2023-10-13T13:51:23;16.00;99.90
34135;DHT22;20410;55.578;12.968;2023-10-13T13:53:53;16.00;99.90
34135;DHT22;20410;55.578;12.968;2023-10-13T13:56:19;16.00;99.90
34135;DHT22;20410;55.578;12.968;2023-10-13T13:58:46;16.00;99.90
34135;DHT22;20410;55.578;12.968;2023-10-13T14:01:11;16.00;99.90
34135;DHT22;20410;55.578;12.968;2023-10-13T14:03:45;16.00;99.90
34135;DHT22;20410;55.578;12.968;2023-10-13T14:06:18;16.00;99.90
34135;DHT22;20410;55.578;12.968;2023-10-13T14:08:48;16.00;99.90
34135;DHT22;20410;55.578;12.968;2023-10-13T14:11:17;16.00;99.90
34135;DHT22;20410;55.578;12.968;2023-10-13T14:14:11;16.10;99.90
34135;DHT22;20410;55.578;12.968;2023-10-13T14:16:57;16.10;99.90
34135;DHT22;20410;55.578;12.968;2023-10-13T14:19:35;16.10;99.90
34135;DHT22;20410;55.578;12.968;2023-10-13T14:22:05;16.10;99.90
34135;DHT22;20410;55.578;12.968;2023-10-13T14:24:32;16.10;99.90
34135;DHT22;20410;55.578;12.968;2023-10-13T14:27:09;16.10;99.90
34135;DHT22;20410;55.578;12.968;2023-10-13T14:29:38;16.10;99.90
34135;DHT22;20410;55.578;12.968;2023-10-13T14:32:08;16.10;99.90
34135;DHT22;20410;55.578;12.968;2023-10-13T14:34:45;16.10;99.90
34135;DHT22;20410;55.578;12.968;2023-10-13T14:37:23;16.10;99.90
34135;DHT22;20410;55.578;12.968;2023-10-13T14:39:55;16.10;99.90
34135;DHT22;20410;55.578;12.968;2023-10-13T14:42:26;16.10;99.90
34135;DHT22;20410;55.578;12.968;2023-10-13T14:44:52;16.00;99.90
34135;DHT22;20410;55.578;12.968;2023-10-13T14:47:24;16.10;99.90
34135;DHT22;20410;55.578;12.968;2023-10-13T14:49:54;16.10;99.90
34135;DHT22;20410;55.578;12.968;2023-10-13T14:52:23;16.10;99.90
34135;DHT22;20410;55.578;12.968;2023-10-13T14:54:49;16.20;99.90
34135;DHT22;20410;55.578;12.968;2023-10-13T14:57:23;16.20;99.90
34135;DHT22;20410;55.578;12.968;2023-10-13T14:59:56;16.30;99.90
34135;DHT22;20410;55.578;12.968;2023-10-13T15:02:23;16.40;99.90
34135;DHT22;20410;55.578;12.968;2023-10-13T15:04:48;16.40;99.90
34135;DHT22;20410;55.578;12.968;2023-10-13T15:07:15;16.50;99.90
34135;DHT22;20410;55.578;12.968;2023-10-13T15:09:42;16.50;99.90
34135;DHT22;20410;55.578;12.968;2023-10-13T15:12:08;16.60;99.90
34135;DHT22;20410;55.578;12.968;2023-10-13T15:14:39;16.70;99.90
34135;DHT22;20410;55.578;12.968;2023-10-13T15:17:07;16.70;99.90
34135;DHT22;20410;55.578;12.968;2023-10-13T15:19:34;16.70;99.90
34135;DHT22;20410;55.578;12.968;2023-10-13T15:22:08;16.70;99.90
34135;DHT22;20410;55.578;12.968;2023-10-13T15:24:42;16.80;99.90
34135;DHT22;20410;55.578;12.968;2023-10-13T15:27:11;16.80;99.90
34135;DHT22;20410;55.578;12.968;2023-10-13T15:29:36;16.90;99.90
34135;DHT22;20410;55.578;12.968;2023-10-13T15:32:02;16.90;99.90
34135;DHT22;20410;55.578;12.968;2023-10-13T15:34:28;16.90;99.90
34135;DHT22;20410;55.578;12.968;2023-10-13T15:36:55;16.90;99.90
34135;DHT22;20410;55.578;12.968;2023-10-13T15:39:22;17.00;99.90
34135;DHT22;20410;55.578;12.968;2023-10-13T15:41:55;17.00;99.90
34135;DHT22;20410;55.578;12.968;2023-10-13T15:44:24;17.00;99.90
34135;DHT22;20410;55.578;12.968;2023-10-13T15:46:54;17.00;99.90
34135;DHT22;20410;55.578;12.968;2023-10-13T15:49:21;17.00;99.90
34135;DHT22;20410;55.578;12.968;2023-10-13T15:51:46;17.10;99.90
34135;DHT22;20410;55.578;12.968;2023-10-13T15:54:12;17.10;99.90
34135;DHT22;20410;55.578;12.968;2023-10-13T15:59:11;17.10;99.90
34135;DHT22;20410;55.578;12.968;2023-10-13T16:01:37;17.10;99.90
34135;DHT22;20410;55.578;12.968;2023-10-13T16:04:09;17.10;99.90
34135;DHT22;20410;55.578;12.968;2023-10-13T16:06:44;17.10;99.90
34135;DHT22;20410;55.578;12.968;2023-10-13T16:09:13;17.10;99.90
34135;DHT22;20410;55.578;12.968;2023-10-13T16:11:45;17.20;99.90
34135;DHT22;20410;55.578;12.968;2023-10-13T16:14:11;17.20;99.90
34135;DHT22;20410;55.578;12.968;2023-10-13T16:16:41;17.20;99.90
34135;DHT22;20410;55.578;12.968;2023-10-13T16:19:15;17.20;99.90
34135;DHT22;20410;55.578;12.968;2023-10-13T16:21:45;17.20;99.90
34135;DHT22;20410;55.578;12.968;2023-10-13T16:24:12;17.30;99.90
34135;DHT22;20410;55.578;12.968;2023-10-13T16:26:41;17.20;99.90
34135;DHT22;20410;55.578;12.968;2023-10-13T16:29:08;17.30;99.90